sensor_id;sensor_type;location;lat;lon;timestamp;pressure;altitude;pressure_sealevel;temperature
49785;BMP280;35679;38.732;-121.358;2023-04-29T00:01:33;100798.25;;;27.11
49785;BMP280;35679;38.732;-121.358;2023-04-29T00:04:23;100792.56;;;27.12
49785;BMP280;35679;38.732;-121.358;2023-04-29T00:07:13;100795.81;;;27.14
49785;BMP280;35679;38.732;-121.358;2023-04-29T00:10:04;100800.94;;;27.16
49785;BMP280;35679;38.732;-121.358;2023-04-29T00:12:53;100795.53;;;27.16
49785;BMP280;35679;38.732;-121.358;2023-04-29T00:15:43;100791.75;;;27.17
49785;BMP280;35679;38.732;-121.358;2023-04-29T00:18:33;100797.69;;;27.18
49785;BMP280;35679;38.732;-121.358;2023-04-29T00:21:22;100795.53;;;27.16
49785;BMP280;35679;38.732;-121.358;2023-04-29T00:24:12;100789.03;;;27.17
49785;BMP280;35679;38.732;-121.358;2023-04-29T00:27:01;100793.09;;;27.19
49785;BMP280;35679;38.732;-121.358;2023-04-29T00:29:51;100794.69;;;27.20
49785;BMP280;35679;38.732;-121.358;2023-04-29T00:32:41;100788.19;;;27.21
49785;BMP280;35679;38.732;-121.358;2023-04-29T00:35:31;100785.47;;;27.21
49785;BMP280;35679;38.732;-121.358;2023-04-29T00:38:21;100799.56;;;27.23
49785;BMP280;35679;38.732;-121.358;2023-04-29T00:41:10;100794.16;;;27.23
49785;BMP280;35679;38.732;-121.358;2023-04-29T00:44:00;100791.16;;;27.24
49785;BMP280;35679;38.732;-121.358;2023-04-29T00:46:49;100801.72;;;27.26
49785;BMP280;35679;38.732;-121.358;2023-04-29T00:49:39;100796.88;;;27.28
49785;BMP280;35679;38.732;-121.358;2023-04-29T00:52:29;100795.22;;;27.27
49785;BMP280;35679;38.732;-121.358;2023-04-29T00:55:22;100793.88;;;27.29
49785;BMP280;35679;38.732;-121.358;2023-04-29T00:58:14;100791.72;;;27.31
49785;BMP280;35679;38.732;-121.358;2023-04-29T01:01:05;100793.06;;;27.34
49785;BMP280;35679;38.732;-121.358;2023-04-29T01:03:56;100798.75;;;27.32
49785;BMP280;35679;38.732;-121.358;2023-04-29T01:10:03;100797.94;;;27.32
49785;BMP280;35679;38.732;-121.358;2023-04-29T01:13:05;100794.41;;;27.36
49785;BMP280;35679;38.732;-121.358;2023-04-29T01:16:01;100794.13;;;27.38
49785;BMP280;35679;38.732;-121.358;2023-04-29T01:18:57;100793.31;;;27.37
49785;BMP280;35679;38.732;-121.358;2023-04-29T01:21:51;100797.41;;;27.35
49785;BMP280;35679;38.732;-121.358;2023-04-29T01:24:41;100790.34;;;27.34
49785;BMP280;35679;38.732;-121.358;2023-04-29T01:27:38;100798.19;;;27.35
49785;BMP280;35679;38.732;-121.358;2023-04-29T01:34:15;100797.13;;;27.36
49785;BMP280;35679;38.732;-121.358;2023-04-29T01:37:27;100791.97;;;27.35
49785;BMP280;35679;38.732;-121.358;2023-04-29T01:40:21;100793.84;;;27.34
49785;BMP280;35679;38.732;-121.358;2023-04-29T01:43:29;100789.25;;;27.35
49785;BMP280;35679;38.732;-121.358;2023-04-29T01:46:30;100790.34;;;27.34
49785;BMP280;35679;38.732;-121.358;2023-04-29T01:49:26;100795.78;;;27.34
49785;BMP280;35679;38.732;-121.358;2023-04-29T01:52:16;100790.34;;;27.34
49785;BMP280;35679;38.732;-121.358;2023-04-29T01:55:16;100791.16;;;27.34
49785;BMP280;35679;38.732;-121.358;2023-04-29T01:58:34;100786.28;;;27.31
49785;BMP280;35679;38.732;-121.358;2023-04-29T02:01:46;100787.09;;;27.32
49785;BMP280;35679;38.732;-121.358;2023-04-29T02:04:36;100786.28;;;27.31
49785;BMP280;35679;38.732;-121.358;2023-04-29T02:07:26;100792.50;;;27.32
49785;BMP280;35679;38.732;-121.358;2023-04-29T02:10:16;100787.38;;;27.30
49785;BMP280;35679;38.732;-121.358;2023-04-29T02:13:08;100789.28;;;27.30
49785;BMP280;35679;38.732;-121.358;2023-04-29T02:16:11;100785.72;;;27.34
49785;BMP280;35679;38.732;-121.358;2023-04-29T02:19:06;100785.72;;;27.34
49785;BMP280;35679;38.732;-121.358;2023-04-29T02:21:58;100786.56;;;27.35
49785;BMP280;35679;38.732;-121.358;2023-04-29T02:24:47;100793.06;;;27.34
49785;BMP280;35679;38.732;-121.358;2023-04-29T02:27:37;100795.22;;;27.32
49785;BMP280;35679;38.732;-121.358;2023-04-29T02:30:27;100795.22;;;27.32
49785;BMP280;35679;38.732;-121.358;2023-04-29T02:33:16;100803.91;;;27.29
49785;BMP280;35679;38.732;-121.358;2023-04-29T02:36:06;100806.88;;;27.22
49785;BMP280;35679;38.732;-121.358;2023-04-29T02:38:55;100806.34;;;27.20
49785;BMP280;35679;38.732;-121.358;2023-04-29T02:41:45;100801.47;;;27.17
49785;BMP280;35679;38.732;-121.358;2023-04-29T02:44:34;100802.03;;;27.15
49785;BMP280;35679;38.732;-121.358;2023-04-29T02:47:24;100798.75;;;27.13
49785;BMP280;35679;38.732;-121.358;2023-04-29T02:50:14;100811.78;;;27.11
49785;BMP280;35679;38.732;-121.358;2023-04-29T02:53:04;100808.25;;;27.10
49785;BMP280;35679;38.732;-121.358;2023-04-29T02:55:53;100816.66;;;27.09
49785;BMP280;35679;38.732;-121.358;2023-04-29T02:58:43;100813.44;;;27.07
49785;BMP280;35679;38.732;-121.358;2023-04-29T03:01:32;100819.91;;;27.06
49785;BMP280;35679;38.732;-121.358;2023-04-29T03:04:22;100820.19;;;27.04
49785;BMP280;35679;38.732;-121.358;2023-04-29T03:07:12;100821.28;;;27.03
49785;BMP280;35679;38.732;-121.358;2023-04-29T03:10:02;100822.63;;;27.01
49785;BMP280;35679;38.732;-121.358;2023-04-29T03:12:52;100815.59;;;27.00
49785;BMP280;35679;38.732;-121.358;2023-04-29T03:15:41;100814.75;;;26.99
49785;BMP280;35679;38.732;-121.358;2023-04-29T03:18:32;100821.53;;;26.97
49785;BMP280;35679;38.732;-121.358;2023-04-29T03:21:21;100821.28;;;26.98
49785;BMP280;35679;38.732;-121.358;2023-04-29T03:24:10;100829.09;;;26.95
49785;BMP280;35679;38.732;-121.358;2023-04-29T03:27:00;100839.94;;;26.95
49785;BMP280;35679;38.732;-121.358;2023-04-29T03:29:49;100836.16;;;26.91
49785;BMP280;35679;38.732;-121.358;2023-04-29T03:32:38;100841.81;;;26.89
49785;BMP280;35679;38.732;-121.358;2023-04-29T03:35:28;100851.84;;;26.89
49785;BMP280;35679;38.732;-121.358;2023-04-29T03:38:30;100859.41;;;26.87
49785;BMP280;35679;38.732;-121.358;2023-04-29T03:41:19;100860.50;;;26.86
49785;BMP280;35679;38.732;-121.358;2023-04-29T03:44:12;100866.19;;;26.84
49785;BMP280;35679;38.732;-121.358;2023-04-29T03:47:02;100878.63;;;26.85
49785;BMP280;35679;38.732;-121.358;2023-04-29T03:49:51;100882.16;;;26.81
49785;BMP280;35679;38.732;-121.358;2023-04-29T03:52:42;100882.69;;;26.83
49785;BMP280;35679;38.732;-121.358;2023-04-29T03:55:35;100878.91;;;26.79
49785;BMP280;35679;38.732;-121.358;2023-04-29T03:58:25;100885.13;;;26.79
49785;BMP280;35679;38.732;-121.358;2023-04-29T04:01:14;100893.78;;;26.76
49785;BMP280;35679;38.732;-121.358;2023-04-29T04:04:05;100894.06;;;26.75
49785;BMP280;35679;38.732;-121.358;2023-04-29T04:06:58;100895.16;;;26.74
49785;BMP280;35679;38.732;-121.358;2023-04-29T04:09:56;100906.25;;;26.72
49785;BMP280;35679;38.732;-121.358;2023-04-29T04:12:45;100905.69;;;26.70
49785;BMP280;35679;38.732;-121.358;2023-04-29T04:15:35;100911.09;;;26.70
49785;BMP280;35679;38.732;-121.358;2023-04-29T04:18:25;100917.59;;;26.69
49785;BMP280;35679;38.732;-121.358;2023-04-29T04:21:15;100917.06;;;26.67
49785;BMP280;35679;38.732;-121.358;2023-04-29T04:24:12;100924.63;;;26.65
49785;BMP280;35679;38.732;-121.358;2023-04-29T04:27:02;100924.06;;;26.63
49785;BMP280;35679;38.732;-121.358;2023-04-29T04:29:56;100924.63;;;26.60
49785;BMP280;35679;38.732;-121.358;2023-04-29T04:32:50;100933.81;;;26.59
49785;BMP280;35679;38.732;-121.358;2023-04-29T04:35:40;100931.09;;;26.59
49785;BMP280;35679;38.732;-121.358;2023-04-29T04:38:30;100936.22;;;26.56
49785;BMP280;35679;38.732;-121.358;2023-04-29T04:41:25;100946.53;;;26.54
49785;BMP280;35679;38.732;-121.358;2023-04-29T04:44:14;100948.66;;;26.52
49785;BMP280;35679;38.732;-121.358;2023-04-29T04:47:26;100947.31;;;26.49
49785;BMP280;35679;38.732;-121.358;2023-04-29T04:50:20;100954.06;;;26.47
49785;BMP280;35679;38.732;-121.358;2023-04-29T04:53:11;100953.50;;;26.45
49785;BMP280;35679;38.732;-121.358;2023-04-29T04:56:14;100958.91;;;26.45
49785;BMP280;35679;38.732;-121.358;2023-04-29T04:59:03;100959.47;;;26.42
49785;BMP280;35679;38.732;-121.358;2023-04-29T05:01:55;100960.00;;;26.39
49785;BMP280;35679;38.732;-121.358;2023-04-29T05:04:45;100958.63;;;26.37
49785;BMP280;35679;38.732;-121.358;2023-04-29T05:07:36;100962.91;;;26.33
49785;BMP280;35679;38.732;-121.358;2023-04-29T05:10:25;100961.81;;;26.29
49785;BMP280;35679;38.732;-121.358;2023-04-29T05:13:18;100958.81;;;26.25
49785;BMP280;35679;38.732;-121.358;2023-04-29T05:16:08;100955.56;;;26.23
49785;BMP280;35679;38.732;-121.358;2023-04-29T05:19:03;100968.25;;;26.23
49785;BMP280;35679;38.732;-121.358;2023-04-29T05:21:56;100962.31;;;26.21
49785;BMP280;35679;38.732;-121.358;2023-04-29T05:24:46;100971.50;;;26.20
49785;BMP280;35679;38.732;-121.358;2023-04-29T05:27:36;100970.94;;;26.18
49785;BMP280;35679;38.732;-121.358;2023-04-29T05:30:29;100956.63;;;26.17
49785;BMP280;35679;38.732;-121.358;2023-04-29T05:33:19;100966.56;;;26.12
49785;BMP280;35679;38.732;-121.358;2023-04-29T05:36:08;100968.19;;;26.08
49785;BMP280;35679;38.732;-121.358;2023-04-29T05:38:58;100975.72;;;26.06
49785;BMP280;35679;38.732;-121.358;2023-04-29T05:41:49;100973.81;;;26.01
49785;BMP280;35679;38.732;-121.358;2023-04-29T05:45:02;100983.81;;;26.01
49785;BMP280;35679;38.732;-121.358;2023-04-29T05:47:52;100980.00;;;25.97
49785;BMP280;35679;38.732;-121.358;2023-04-29T05:50:42;100988.66;;;25.94
49785;BMP280;35679;38.732;-121.358;2023-04-29T05:53:31;100982.41;;;25.93
49785;BMP280;35679;38.732;-121.358;2023-04-29T05:56:21;100976.75;;;25.90
49785;BMP280;35679;38.732;-121.358;2023-04-29T05:59:11;100978.06;;;25.87
49785;BMP280;35679;38.732;-121.358;2023-04-29T06:02:04;100985.63;;;25.85
49785;BMP280;35679;38.732;-121.358;2023-04-29T06:04:55;100989.66;;;25.83
49785;BMP280;35679;38.732;-121.358;2023-04-29T06:08:05;100992.34;;;25.83
49785;BMP280;35679;38.732;-121.358;2023-04-29T06:11:06;100990.47;;;25.83
49785;BMP280;35679;38.732;-121.358;2023-04-29T06:13:55;100998.25;;;25.80
49785;BMP280;35679;38.732;-121.358;2023-04-29T06:16:45;100997.47;;;25.80
49785;BMP280;35679;38.732;-121.358;2023-04-29T06:19:34;100998.22;;;25.75
49785;BMP280;35679;38.732;-121.358;2023-04-29T06:22:23;101001.47;;;25.72
49785;BMP280;35679;38.732;-121.358;2023-04-29T06:25:14;100997.97;;;25.72
49785;BMP280;35679;38.732;-121.358;2023-04-29T06:28:06;100997.63;;;25.68
49785;BMP280;35679;38.732;-121.358;2023-04-29T06:30:56;100994.09;;;25.68
49785;BMP280;35679;38.732;-121.358;2023-04-29T06:33:46;100997.88;;;25.67
49785;BMP280;35679;38.732;-121.358;2023-04-29T06:36:35;101010.84;;;25.65
49785;BMP280;35679;38.732;-121.358;2023-04-29T06:39:47;100998.38;;;25.64
49785;BMP280;35679;38.732;-121.358;2023-04-29T06:42:58;101005.94;;;25.62
49785;BMP280;35679;38.732;-121.358;2023-04-29T06:45:53;101005.66;;;25.58
49785;BMP280;35679;38.732;-121.358;2023-04-29T06:48:56;101013.19;;;25.56
49785;BMP280;35679;38.732;-121.358;2023-04-29T06:51:46;101018.88;;;25.55
49785;BMP280;35679;38.732;-121.358;2023-04-29T06:54:35;101019.13;;;25.53
49785;BMP280;35679;38.732;-121.358;2023-04-29T06:57:25;101013.16;;;25.51
49785;BMP280;35679;38.732;-121.358;2023-04-29T07:00:14;101016.38;;;25.48
49785;BMP280;35679;38.732;-121.358;2023-04-29T07:03:04;101017.97;;;25.49
49785;BMP280;35679;38.732;-121.358;2023-04-29T07:05:54;101018.50;;;25.46
49785;BMP280;35679;38.732;-121.358;2023-04-29T07:08:44;101022.00;;;25.47
49785;BMP280;35679;38.732;-121.358;2023-04-29T07:11:35;101015.81;;;25.46
49785;BMP280;35679;38.732;-121.358;2023-04-29T07:14:24;101020.59;;;25.39
49785;BMP280;35679;38.732;-121.358;2023-04-29T07:17:13;101027.63;;;25.40
49785;BMP280;35679;38.732;-121.358;2023-04-29T07:20:03;101015.47;;;25.38
49785;BMP280;35679;38.732;-121.358;2023-04-29T07:22:53;101025.16;;;25.34
49785;BMP280;35679;38.732;-121.358;2023-04-29T07:25:43;101028.91;;;25.33
49785;BMP280;35679;38.732;-121.358;2023-04-29T07:28:33;101030.25;;;25.30
49785;BMP280;35679;38.732;-121.358;2023-04-29T07:31:23;101032.38;;;25.28
49785;BMP280;35679;38.732;-121.358;2023-04-29T07:34:12;101033.47;;;25.27
49785;BMP280;35679;38.732;-121.358;2023-04-29T07:37:02;101026.69;;;25.25
49785;BMP280;35679;38.732;-121.358;2023-04-29T07:39:52;101028.00;;;25.22
49785;BMP280;35679;38.732;-121.358;2023-04-29T07:42:42;101028.25;;;25.21
49785;BMP280;35679;38.732;-121.358;2023-04-29T07:45:32;101033.09;;;25.19
49785;BMP280;35679;38.732;-121.358;2023-04-29T07:48:21;101029.03;;;25.16
49785;BMP280;35679;38.732;-121.358;2023-04-29T07:51:14;101033.06;;;25.14
49785;BMP280;35679;38.732;-121.358;2023-04-29T07:54:03;101035.44;;;25.11
49785;BMP280;35679;38.732;-121.358;2023-04-29T07:56:52;101031.66;;;25.12
49785;BMP280;35679;38.732;-121.358;2023-04-29T07:59:42;101032.16;;;25.09
49785;BMP280;35679;38.732;-121.358;2023-04-29T08:02:31;101034.31;;;25.07
49785;BMP280;35679;38.732;-121.358;2023-04-29T08:05:22;101028.91;;;25.07
49785;BMP280;35679;38.732;-121.358;2023-04-29T08:08:12;101039.13;;;25.05
49785;BMP280;35679;38.732;-121.358;2023-04-29T08:11:03;101034.25;;;25.02
49785;BMP280;35679;38.732;-121.358;2023-04-29T08:13:55;101036.94;;;25.02
49785;BMP280;35679;38.732;-121.358;2023-04-29T08:16:47;101041.50;;;25.01
49785;BMP280;35679;38.732;-121.358;2023-04-29T08:19:36;101039.06;;;25.00
49785;BMP280;35679;38.732;-121.358;2023-04-29T08:22:25;101044.97;;;24.97
49785;BMP280;35679;38.732;-121.358;2023-04-29T08:25:15;101034.09;;;24.92
49785;BMP280;35679;38.732;-121.358;2023-04-29T08:28:05;101036.25;;;24.90
49785;BMP280;35679;38.732;-121.358;2023-04-29T08:30:55;101028.63;;;24.87
49785;BMP280;35679;38.732;-121.358;2023-04-29T08:33:44;101031.84;;;24.84
49785;BMP280;35679;38.732;-121.358;2023-04-29T08:36:34;101022.13;;;24.83
49785;BMP280;35679;38.732;-121.358;2023-04-29T08:39:27;101023.44;;;24.80
49785;BMP280;35679;38.732;-121.358;2023-04-29T08:42:26;101022.31;;;24.76
49785;BMP280;35679;38.732;-121.358;2023-04-29T08:45:22;101022.56;;;24.75
49785;BMP280;35679;38.732;-121.358;2023-04-29T08:48:13;101014.97;;;24.72
49785;BMP280;35679;38.732;-121.358;2023-04-29T08:51:04;101023.56;;;24.69
49785;BMP280;35679;38.732;-121.358;2023-04-29T08:53:53;101018.19;;;24.69
49785;BMP280;35679;38.732;-121.358;2023-04-29T08:56:45;101012.22;;;24.67
49785;BMP280;35679;38.732;-121.358;2023-04-29T08:59:35;101020.56;;;24.65
49785;BMP280;35679;38.732;-121.358;2023-04-29T09:02:25;101021.06;;;24.62
49785;BMP280;35679;38.732;-121.358;2023-04-29T09:05:15;101025.09;;;24.60
49785;BMP280;35679;38.732;-121.358;2023-04-29T09:08:04;101017.78;;;24.60
49785;BMP280;35679;38.732;-121.358;2023-04-29T09:10:54;101021.56;;;24.59
49785;BMP280;35679;38.732;-121.358;2023-04-29T09:13:43;101019.63;;;24.55
49785;BMP280;35679;38.732;-121.358;2023-04-29T09:16:33;101022.56;;;24.53
49785;BMP280;35679;38.732;-121.358;2023-04-29T09:19:32;101026.34;;;24.52
49785;BMP280;35679;38.732;-121.358;2023-04-29T09:22:21;101025.75;;;24.50
49785;BMP280;35679;38.732;-121.358;2023-04-29T09:25:11;101020.63;;;24.49
49785;BMP280;35679;38.732;-121.358;2023-04-29T09:28:14;101021.69;;;24.48
49785;BMP280;35679;38.732;-121.358;2023-04-29T09:31:04;101028.66;;;24.44
49785;BMP280;35679;38.732;-121.358;2023-04-29T09:33:56;101023.75;;;24.41
49785;BMP280;35679;38.732;-121.358;2023-04-29T09:36:50;101029.63;;;24.38
49785;BMP280;35679;38.732;-121.358;2023-04-29T09:39:44;101035.81;;;24.39
49785;BMP280;35679;38.732;-121.358;2023-04-29T09:42:43;101029.88;;;24.37
49785;BMP280;35679;38.732;-121.358;2023-04-29T09:45:37;101037.63;;;24.33
49785;BMP280;35679;38.732;-121.358;2023-04-29T09:48:30;101033.31;;;24.32
49785;BMP280;35679;38.732;-121.358;2023-04-29T09:51:21;101030.03;;;24.30
49785;BMP280;35679;38.732;-121.358;2023-04-29T09:54:20;101035.94;;;24.27
49785;BMP280;35679;38.732;-121.358;2023-04-29T09:57:11;101024.81;;;24.24
49785;BMP280;35679;38.732;-121.358;2023-04-29T10:00:02;101016.16;;;24.22
49785;BMP280;35679;38.732;-121.358;2023-04-29T10:03:00;101013.69;;;24.20
49785;BMP280;35679;38.732;-121.358;2023-04-29T10:05:49;101015.59;;;24.20
49785;BMP280;35679;38.732;-121.358;2023-04-29T10:08:39;101012.31;;;24.18
49785;BMP280;35679;38.732;-121.358;2023-04-29T10:11:29;101017.16;;;24.16
49785;BMP280;35679;38.732;-121.358;2023-04-29T10:14:21;101019.03;;;24.15
49785;BMP280;35679;38.732;-121.358;2023-04-29T10:17:17;101014.41;;;24.11
49785;BMP280;35679;38.732;-121.358;2023-04-29T10:20:13;101024.34;;;24.10
49785;BMP280;35679;38.732;-121.358;2023-04-29T10:23:04;101014.06;;;24.07
49785;BMP280;35679;38.732;-121.358;2023-04-29T10:25:54;101014.31;;;24.06
49785;BMP280;35679;38.732;-121.358;2023-04-29T10:28:46;101021.81;;;24.04
49785;BMP280;35679;38.732;-121.358;2023-04-29T10:31:39;101019.59;;;24.01
49785;BMP280;35679;38.732;-121.358;2023-04-29T10:34:31;101016.38;;;23.99
49785;BMP280;35679;38.732;-121.358;2023-04-29T10:37:22;101013.91;;;23.97
49785;BMP280;35679;38.732;-121.358;2023-04-29T10:40:12;101013.34;;;23.95
49785;BMP280;35679;38.732;-121.358;2023-04-29T10:43:03;101018.16;;;23.93
49785;BMP280;35679;38.732;-121.358;2023-04-29T10:49:05;101014.31;;;23.89
49785;BMP280;35679;38.732;-121.358;2023-04-29T10:52:02;101014.81;;;23.86
49785;BMP280;35679;38.732;-121.358;2023-04-29T10:55:01;101013.19;;;23.85
49785;BMP280;35679;38.732;-121.358;2023-04-29T10:57:55;101011.56;;;23.84
49785;BMP280;35679;38.732;-121.358;2023-04-29T11:00:44;101011.47;;;23.79
49785;BMP280;35679;38.732;-121.358;2023-04-29T11:09:28;101018.88;;;23.73
49785;BMP280;35679;38.732;-121.358;2023-04-29T11:12:19;101019.38;;;23.70
49785;BMP280;35679;38.732;-121.358;2023-04-29T11:15:09;101016.91;;;23.68
49785;BMP280;35679;38.732;-121.358;2023-04-29T11:18:01;101014.69;;;23.65
49785;BMP280;35679;38.732;-121.358;2023-04-29T11:23:55;101017.16;;;23.67
49785;BMP280;35679;38.732;-121.358;2023-04-29T11:26:45;101026.56;;;23.64
49785;BMP280;35679;38.732;-121.358;2023-04-29T11:29:36;101026.22;;;23.61
49785;BMP280;35679;38.732;-121.358;2023-04-29T11:32:37;101027.78;;;23.57
49785;BMP280;35679;38.732;-121.358;2023-04-29T11:35:38;101034.22;;;23.56
49785;BMP280;35679;38.732;-121.358;2023-04-29T11:38:28;101024.75;;;23.53
49785;BMP280;35679;38.732;-121.358;2023-04-29T11:41:18;101019.03;;;23.50
49785;BMP280;35679;38.732;-121.358;2023-04-29T11:44:07;101018.78;;;23.51
49785;BMP280;35679;38.732;-121.358;2023-04-29T11:47:07;101014.09;;;23.47
49785;BMP280;35679;38.732;-121.358;2023-04-29T11:50:07;101017.31;;;23.44
49785;BMP280;35679;38.732;-121.358;2023-04-29T11:52:57;101018.84;;;23.40
49785;BMP280;35679;38.732;-121.358;2023-04-29T11:55:47;101025.03;;;23.40
49785;BMP280;35679;38.732;-121.358;2023-04-29T11:58:36;101020.97;;;23.38
49785;BMP280;35679;38.732;-121.358;2023-04-29T12:01:27;101024.72;;;23.37
49785;BMP280;35679;38.732;-121.358;2023-04-29T12:04:16;101022.50;;;23.34
49785;BMP280;35679;38.732;-121.358;2023-04-29T12:07:09;101019.03;;;23.33
49785;BMP280;35679;38.732;-121.358;2023-04-29T12:09:58;101022.19;;;23.30
49785;BMP280;35679;38.732;-121.358;2023-04-29T12:12:48;101025.38;;;23.27
49785;BMP280;35679;38.732;-121.358;2023-04-29T12:15:38;101027.47;;;23.25
49785;BMP280;35679;38.732;-121.358;2023-04-29T12:18:28;101028.06;;;23.27
49785;BMP280;35679;38.732;-121.358;2023-04-29T12:21:18;101029.34;;;23.25
49785;BMP280;35679;38.732;-121.358;2023-04-29T12:24:11;101031.72;;;23.21
49785;BMP280;35679;38.732;-121.358;2023-04-29T12:27:01;101028.44;;;23.19
49785;BMP280;35679;38.732;-121.358;2023-04-29T12:29:51;101032.19;;;23.18
49785;BMP280;35679;38.732;-121.358;2023-04-29T12:32:44;101035.13;;;23.17
49785;BMP280;35679;38.732;-121.358;2023-04-29T12:35:36;101031.88;;;23.15
49785;BMP280;35679;38.732;-121.358;2023-04-29T12:38:27;101033.38;;;23.11
49785;BMP280;35679;38.732;-121.358;2023-04-29T12:41:17;101033.63;;;23.10
49785;BMP280;35679;38.732;-121.358;2023-04-29T12:44:07;101027.44;;;23.09
49785;BMP280;35679;38.732;-121.358;2023-04-29T12:47:07;101031.44;;;23.07
49785;BMP280;35679;38.732;-121.358;2023-04-29T12:49:57;101029.78;;;23.06
49785;BMP280;35679;38.732;-121.358;2023-04-29T12:52:46;101034.59;;;23.04
49785;BMP280;35679;38.732;-121.358;2023-04-29T12:55:37;101033.38;;;23.11
49785;BMP280;35679;38.732;-121.358;2023-04-29T12:58:30;101035.72;;;23.08
49785;BMP280;35679;38.732;-121.358;2023-04-29T13:01:20;101039.72;;;23.05
49785;BMP280;35679;38.732;-121.358;2023-04-29T13:04:10;101049.94;;;23.03
49785;BMP280;35679;38.732;-121.358;2023-04-29T13:07:00;101048.53;;;23.01
49785;BMP280;35679;38.732;-121.358;2023-04-29T13:09:50;101051.44;;;22.99
49785;BMP280;35679;38.732;-121.358;2023-04-29T13:12:39;101046.28;;;22.98
49785;BMP280;35679;38.732;-121.358;2023-04-29T13:15:29;101046.75;;;22.95
49785;BMP280;35679;38.732;-121.358;2023-04-29T13:18:18;101052.41;;;22.93
49785;BMP280;35679;38.732;-121.358;2023-04-29T13:21:08;101060.47;;;22.93
49785;BMP280;35679;38.732;-121.358;2023-04-29T13:23:58;101058.81;;;22.92
49785;BMP280;35679;38.732;-121.358;2023-04-29T13:26:49;101061.16;;;22.89
49785;BMP280;35679;38.732;-121.358;2023-04-29T13:29:39;101072.97;;;22.88
49785;BMP280;35679;38.732;-121.358;2023-04-29T13:32:28;101072.63;;;22.84
49785;BMP280;35679;38.732;-121.358;2023-04-29T13:35:32;101073.72;;;22.83
49785;BMP280;35679;38.732;-121.358;2023-04-29T13:38:23;101076.88;;;22.80
49785;BMP280;35679;38.732;-121.358;2023-04-29T13:41:13;101079.00;;;22.78
49785;BMP280;35679;38.732;-121.358;2023-04-29T13:44:03;101079.22;;;22.77
49785;BMP280;35679;38.732;-121.358;2023-04-29T13:47:14;101077.34;;;22.77
49785;BMP280;35679;38.732;-121.358;2023-04-29T13:50:11;101091.25;;;22.74
49785;BMP280;35679;38.732;-121.358;2023-04-29T13:53:21;101094.78;;;22.75
49785;BMP280;35679;38.732;-121.358;2023-04-29T13:56:13;101099.34;;;22.74
49785;BMP280;35679;38.732;-121.358;2023-04-29T13:59:22;101101.72;;;22.71
49785;BMP280;35679;38.732;-121.358;2023-04-29T14:02:14;101101.91;;;22.69
49785;BMP280;35679;38.732;-121.358;2023-04-29T14:05:12;101111.06;;;22.68
49785;BMP280;35679;38.732;-121.358;2023-04-29T14:08:02;101112.13;;;22.67
49785;BMP280;35679;38.732;-121.358;2023-04-29T14:10:52;101104.50;;;22.64
49785;BMP280;35679;38.732;-121.358;2023-04-29T14:13:42;101106.84;;;22.72
49785;BMP280;35679;38.732;-121.358;2023-04-29T14:16:31;101107.28;;;22.69
49785;BMP280;35679;38.732;-121.358;2023-04-29T14:19:21;101117.50;;;22.67
49785;BMP280;35679;38.732;-121.358;2023-04-29T14:22:10;101115.50;;;22.63
49785;BMP280;35679;38.732;-121.358;2023-04-29T14:24:59;101112.81;;;22.63
49785;BMP280;35679;38.732;-121.358;2023-04-29T14:27:49;101115.16;;;22.59
49785;BMP280;35679;38.732;-121.358;2023-04-29T14:30:38;101120.28;;;22.61
49785;BMP280;35679;38.732;-121.358;2023-04-29T14:33:28;101126.94;;;22.58
49785;BMP280;35679;38.732;-121.358;2023-04-29T14:36:18;101129.63;;;22.58
49785;BMP280;35679;38.732;-121.358;2023-04-29T14:39:08;101121.56;;;22.58
49785;BMP280;35679;38.732;-121.358;2023-04-29T14:41:57;101127.78;;;22.59
49785;BMP280;35679;38.732;-121.358;2023-04-29T14:44:49;101131.53;;;22.58
49785;BMP280;35679;38.732;-121.358;2023-04-29T14:47:39;101129.88;;;22.57
49785;BMP280;35679;38.732;-121.358;2023-04-29T14:50:29;101137.38;;;22.55
49785;BMP280;35679;38.732;-121.358;2023-04-29T14:53:18;101140.66;;;22.57
49785;BMP280;35679;38.732;-121.358;2023-04-29T14:56:09;101134.47;;;22.56
49785;BMP280;35679;38.732;-121.358;2023-04-29T14:58:58;101140.66;;;22.57
49785;BMP280;35679;38.732;-121.358;2023-04-29T15:01:47;101145.22;;;22.56
49785;BMP280;35679;38.732;-121.358;2023-04-29T15:04:37;101141.00;;;22.60
49785;BMP280;35679;38.732;-121.358;2023-04-29T15:07:27;101143.09;;;22.58
49785;BMP280;35679;38.732;-121.358;2023-04-29T15:10:18;101151.41;;;22.57
49785;BMP280;35679;38.732;-121.358;2023-04-29T15:13:10;101155.13;;;22.56
49785;BMP280;35679;38.732;-121.358;2023-04-29T15:16:00;101155.38;;;22.54
49785;BMP280;35679;38.732;-121.358;2023-04-29T15:18:49;101155.13;;;22.56
49785;BMP280;35679;38.732;-121.358;2023-04-29T15:21:38;101159.47;;;22.57
49785;BMP280;35679;38.732;-121.358;2023-04-29T15:24:27;101149.75;;;22.56
49785;BMP280;35679;38.732;-121.358;2023-04-29T15:27:17;101151.88;;;22.54
49785;BMP280;35679;38.732;-121.358;2023-04-29T15:30:06;101158.66;;;22.56
49785;BMP280;35679;38.732;-121.358;2023-04-29T15:32:56;101166.72;;;22.56
49785;BMP280;35679;38.732;-121.358;2023-04-29T15:35:45;101174.56;;;22.58
49785;BMP280;35679;38.732;-121.358;2023-04-29T15:38:35;101178.31;;;22.57
49785;BMP280;35679;38.732;-121.358;2023-04-29T15:41:25;101176.22;;;22.59
49785;BMP280;35679;38.732;-121.358;2023-04-29T15:44:14;101166.25;;;22.59
49785;BMP280;35679;38.732;-121.358;2023-04-29T15:47:04;101175.97;;;22.60
49785;BMP280;35679;38.732;-121.358;2023-04-29T15:49:53;101175.97;;;22.60
49785;BMP280;35679;38.732;-121.358;2023-04-29T15:52:43;101177.84;;;22.60
49785;BMP280;35679;38.732;-121.358;2023-04-29T15:55:33;101179.94;;;22.58